This is the latest recevied weather packets stored in our database for station/object F4LNO-10. If no packets are shown the sender has not sent any weather packets the latest 10 day(s).
| Time | Temp. | Humidity | Pressure | Rain* | Wind** | Luminosity | Snow |
|---|---|---|---|---|---|---|---|
| 1777966584 | 18.89° C | 78% | 1012.5 hPa | - | - | - | - |
| 1777965683 | 18.89° C | 77% | 1012.4 hPa | - | - | - | - |
| 1777964782 | 18.89° C | 77% | 1012.2 hPa | - | - | - | - |
| 1777963881 | 18.89° C | 77% | 1012.4 hPa | - | - | - | - |
| 1777962980 | 18.89° C | 79% | 1012.3 hPa | - | - | - | - |
| 1777962080 | 18.89° C | 77% | 1012.1 hPa | - | - | - | - |
| 1777961179 | 18.89° C | 76% | 1011.9 hPa | - | - | - | - |
| 1777960278 | 18.89° C | 75% | 1011.5 hPa | - | - | - | - |
| 1777959377 | 18.89° C | 76% | 1011.6 hPa | - | - | - | - |
| 1777958476 | 19.44° C | 75% | 1011.6 hPa | - | - | - | - |
| 1777957575 | 18.89° C | 75% | 1011.7 hPa | - | - | - | - |
| 1777956675 | 19.44° C | 75% | 1011.3 hPa | - | - | - | - |
| 1777955774 | 18.89° C | 75% | 1011.3 hPa | - | - | - | - |
| 1777954873 | 19.44° C | 73% | 1011.4 hPa | - | - | - | - |
| 1777953972 | 21.67° C | 66% | 1011.2 hPa | - | - | - | - |
| 1777953071 | 20° C | 72% | 1011.2 hPa | - | - | - | - |
| 1777952170 | 21.67° C | 66% | 1011.4 hPa | - | - | - | - |
| 1777951270 | 20° C | 71% | 1011.6 hPa | - | - | - | - |
| 1777950369 | 21.67° C | 67% | 1011.4 hPa | - | - | - | - |
| 1777949468 | 21.67° C | 66% | 1011.9 hPa | - | - | - | - |
| 1777948567 | 21.67° C | 66% | 1011.7 hPa | - | - | - | - |
| 1777947666 | 21.67° C | 67% | 1012 hPa | - | - | - | - |
| 1777946765 | 22.22° C | 66% | 1012.1 hPa | - | - | - | - |
| 1777945864 | 21.67° C | 67% | 1012.5 hPa | - | - | - | - |
| 1777944982 | 22.22° C | 66% | 1012.4 hPa | - | - | - | - |
* Rain since midnight (hover to see other rain measurements)
** Current wind speed in m/s (hover to see current wind gust speed)